createdAt,value
2023-04-01T00:00:05.766Z,88.51
2023-04-01T00:01:05.535Z,88.51
2023-04-01T00:02:05.620Z,88.41
2023-04-01T00:03:05.553Z,88.41
2023-04-01T00:04:05.771Z,88.00
2023-04-01T00:05:05.605Z,87.90
2023-04-01T00:06:05.503Z,87.79
2023-04-01T00:07:05.457Z,87.90
2023-04-01T00:08:05.578Z,87.28
2023-04-01T00:09:05.420Z,87.70
2023-04-01T00:10:05.468Z,87.38
2023-04-01T00:11:05.461Z,87.28
2023-04-01T00:12:05.497Z,87.45
2023-04-01T00:13:05.521Z,87.70
2023-04-01T00:14:05.438Z,87.49
2023-04-01T00:15:05.381Z,88.00
2023-04-01T00:16:17.770Z,88.21
2023-04-01T00:17:05.372Z,88.31
2023-04-01T00:18:05.534Z,87.90
2023-04-01T00:19:05.469Z,88.00
2023-04-01T00:20:05.337Z,87.90
2023-04-01T00:21:05.534Z,88.00
2023-04-01T00:22:05.391Z,88.82
2023-04-01T00:23:05.328Z,88.92
2023-04-01T00:24:05.451Z,89.23
2023-04-01T00:25:05.333Z,88.82
2023-04-01T00:26:05.247Z,88.62
2023-04-01T00:27:05.226Z,89.23
2023-04-01T00:28:05.337Z,89.13
2023-04-01T00:29:05.234Z,89.13
2023-04-01T00:30:05.233Z,89.64
2023-04-01T00:31:05.251Z,89.75
2023-04-01T00:32:05.309Z,89.23
2023-04-01T00:33:05.309Z,89.84
2023-04-01T00:34:05.206Z,89.84
2023-04-01T00:35:05.176Z,89.84
2023-04-01T00:36:05.217Z,89.33
2023-04-01T00:37:05.119Z,89.03
2023-04-01T00:38:05.326Z,88.92
2023-04-01T00:39:05.132Z,89.33
2023-04-01T00:40:05.172Z,89.13
2023-04-01T00:41:05.088Z,89.13
2023-04-01T00:42:05.110Z,88.92
2023-04-01T00:43:05.136Z,89.33
2023-04-01T00:44:05.373Z,89.13
2023-04-01T00:45:05.176Z,88.62
2023-04-01T00:46:05.243Z,88.92
2023-04-01T00:47:05.113Z,88.92
2023-04-01T00:48:05.053Z,88.62
2023-04-01T00:49:05.267Z,88.82
2023-04-01T00:50:05.033Z,88.10
2023-04-01T00:51:05.050Z,88.31
2023-04-01T00:52:05.050Z,88.62
2023-04-01T00:53:04.977Z,88.10
2023-04-01T00:54:05.089Z,88.31
2023-04-01T00:55:04.995Z,88.21
2023-04-01T00:56:04.976Z,87.18
2023-04-01T00:57:05.047Z,88.00
2023-04-01T00:58:04.952Z,87.79
2023-04-01T00:59:04.925Z,87.79
2023-04-01T01:00:04.970Z,87.08
2023-04-01T01:01:04.966Z,86.98
2023-04-01T01:02:04.906Z,87.08
2023-04-01T01:03:05.046Z,86.66
2023-04-01T01:04:04.882Z,86.57
2023-04-01T01:05:04.986Z,86.46
2023-04-01T01:06:04.854Z,86.25
2023-04-01T01:07:04.950Z,86.77
2023-04-01T01:08:04.904Z,86.87
2023-04-01T01:09:04.826Z,86.57
2023-04-01T01:10:04.804Z,86.57
2023-04-01T01:11:04.790Z,86.57
2023-04-01T01:12:04.809Z,87.18
2023-04-01T01:13:04.783Z,86.77
2023-04-01T01:14:04.747Z,86.46
2023-04-01T01:15:04.809Z,86.25
2023-04-01T01:16:04.775Z,86.36
2023-04-01T01:17:04.727Z,86.15
2023-04-01T01:18:04.754Z,86.57
2023-04-01T01:19:04.797Z,86.57
2023-04-01T01:20:09.886Z,86.46
2023-04-01T01:21:04.662Z,86.15
2023-04-01T01:22:05.120Z,85.95
2023-04-01T01:23:04.716Z,86.57
2023-04-01T01:24:04.648Z,86.25
2023-04-01T01:25:04.651Z,86.05
2023-04-01T01:26:04.899Z,86.05
2023-04-01T01:27:04.597Z,85.95
2023-04-01T01:28:04.605Z,85.95
2023-04-01T01:29:04.841Z,85.85
2023-04-01T01:30:04.588Z,86.05
2023-04-01T01:31:04.642Z,86.46
2023-04-01T01:32:04.561Z,86.87
2023-04-01T01:33:04.609Z,86.66
2023-04-01T01:34:04.533Z,86.57
2023-04-01T01:35:04.542Z,86.46
2023-04-01T01:36:04.624Z,86.57
2023-04-01T01:37:04.629Z,86.77
2023-04-01T01:38:04.525Z,86.77
2023-04-01T01:39:04.522Z,86.25
2023-04-01T01:40:04.647Z,86.98
2023-04-01T01:41:04.569Z,87.18
2023-04-01T01:42:04.480Z,86.66
2023-04-01T01:43:04.469Z,86.57
2023-04-01T01:44:04.553Z,86.77
2023-04-01T01:45:04.449Z,86.87
2023-04-01T01:46:04.512Z,87.08
2023-04-01T01:47:04.407Z,87.08
2023-04-01T01:48:04.444Z,86.87
2023-04-01T01:49:04.379Z,86.87
2023-04-01T01:50:04.421Z,86.46
2023-04-01T01:51:04.348Z,86.46
2023-04-01T01:52:04.405Z,86.77
2023-04-01T01:53:04.344Z,87.18
2023-04-01T01:54:04.323Z,87.08
2023-04-01T01:55:04.395Z,86.98
2023-04-01T01:56:04.336Z,85.85
2023-04-01T01:57:04.316Z,86.98
2023-04-01T01:58:04.268Z,86.87
2023-04-01T01:59:04.281Z,87.18
2023-04-01T02:00:04.285Z,86.87
2023-04-01T02:01:04.413Z,86.77
2023-04-01T02:02:04.334Z,87.08
2023-04-01T02:03:04.353Z,87.08
2023-04-01T02:04:04.289Z,86.77
2023-04-01T02:05:04.276Z,87.49
2023-04-01T02:06:04.198Z,87.28
2023-04-01T02:07:04.302Z,86.77
2023-04-01T02:08:04.178Z,86.87
2023-04-01T02:09:05.141Z,87.38
2023-04-01T02:10:04.221Z,86.87
2023-04-01T02:11:04.221Z,87.18
2023-04-01T02:12:04.228Z,87.63
2023-04-01T02:13:04.153Z,87.02
2023-04-01T02:14:04.322Z,87.53
2023-04-01T02:15:04.125Z,87.43
2023-04-01T02:16:04.123Z,87.43
2023-04-01T02:17:04.232Z,86.81
2023-04-01T02:18:04.142Z,87.22
2023-04-01T02:19:04.145Z,87.02
2023-04-01T02:20:04.076Z,86.60
2023-04-01T02:21:04.106Z,85.78
2023-04-01T02:22:04.055Z,87.28
2023-04-01T02:23:04.102Z,87.22
2023-04-01T02:24:04.039Z,87.12
2023-04-01T02:25:03.997Z,87.12
2023-04-01T02:26:03.952Z,87.02
2023-04-01T02:27:03.978Z,87.12
2023-04-01T02:28:03.942Z,86.40
2023-04-01T02:29:04.012Z,87.12
2023-04-01T02:30:03.991Z,86.98
2023-04-01T02:31:03.996Z,86.66
2023-04-01T02:32:03.960Z,87.22
2023-04-01T02:33:03.965Z,86.36
2023-04-01T02:34:03.897Z,86.87
2023-04-01T02:35:03.890Z,86.81
2023-04-01T02:36:04.008Z,87.22
2023-04-01T02:37:03.871Z,86.60
2023-04-01T02:38:03.918Z,87.32
2023-04-01T02:39:03.878Z,86.91
2023-04-01T02:40:03.872Z,87.32
2023-04-01T02:41:03.900Z,86.81
2023-04-01T02:42:03.890Z,86.77
2023-04-01T02:43:04.456Z,87.32
2023-04-01T02:44:03.800Z,87.22
2023-04-01T02:45:03.881Z,87.84
2023-04-01T02:46:03.833Z,87.02
2023-04-01T02:47:03.919Z,87.12
2023-04-01T02:48:03.886Z,86.50
2023-04-01T02:49:03.721Z,86.71
2023-04-01T02:50:03.879Z,86.81
2023-04-01T02:51:03.715Z,86.81
2023-04-01T02:52:03.726Z,86.71
2023-04-01T02:53:03.708Z,86.30
2023-04-01T02:54:03.668Z,86.25
2023-04-01T02:55:03.726Z,86.66
2023-04-01T02:56:03.704Z,87.32
2023-04-01T02:57:03.707Z,86.91
2023-04-01T02:58:03.638Z,87.22
2023-04-01T02:59:03.654Z,86.50
2023-04-01T03:00:03.625Z,86.91
2023-04-01T03:01:03.681Z,87.63
2023-04-01T03:02:03.651Z,87.22
2023-04-01T03:03:03.742Z,86.91
2023-04-01T03:04:03.598Z,86.81
2023-04-01T03:05:03.640Z,87.32
2023-04-01T03:06:03.539Z,87.32
2023-04-01T03:07:03.592Z,87.53
2023-04-01T03:08:03.533Z,87.12
2023-04-01T03:09:03.599Z,87.22
2023-04-01T03:10:03.513Z,87.73
2023-04-01T03:11:03.514Z,87.73
2023-04-01T03:12:03.507Z,87.63
2023-04-01T03:13:03.500Z,87.84
2023-04-01T03:14:03.475Z,87.94
2023-04-01T03:15:10.756Z,87.84
2023-04-01T03:16:03.509Z,87.84
2023-04-01T03:17:03.450Z,88.14
2023-04-01T03:18:04.113Z,87.32
2023-04-01T03:19:03.501Z,88.14
2023-04-01T03:20:03.422Z,88.66
2023-04-01T03:21:03.372Z,88.24
2023-04-01T03:22:03.385Z,88.24
2023-04-01T03:23:03.554Z,88.14
2023-04-01T03:24:03.396Z,87.84
2023-04-01T03:25:03.294Z,88.24
2023-04-01T03:26:03.344Z,88.96
2023-04-01T03:27:03.326Z,88.86
2023-04-01T03:28:03.326Z,89.89
2023-04-01T03:29:03.523Z,89.27
2023-04-01T03:30:03.457Z,89.78
2023-04-01T03:31:03.377Z,90.65
2023-04-01T03:32:03.240Z,90.34
2023-04-01T03:33:03.356Z,91.06
2023-04-01T03:34:03.221Z,91.47
2023-04-01T03:35:03.241Z,92.08
2023-04-01T03:36:03.426Z,92.08
2023-04-01T03:37:03.234Z,92.80
2023-04-01T03:38:03.214Z,92.50
2023-04-01T03:39:03.188Z,92.85
2023-04-01T03:40:03.201Z,93.57
2023-04-01T03:41:03.215Z,93.57
2023-04-01T03:42:03.252Z,93.67
2023-04-01T03:43:03.216Z,93.16
2023-04-01T03:44:03.136Z,94.08
2023-04-01T03:45:03.172Z,93.98
2023-04-01T03:46:03.170Z,93.46
2023-04-01T03:47:03.078Z,93.57
2023-04-01T03:48:03.152Z,92.85
2023-04-01T03:49:03.176Z,93.57
2023-04-01T03:50:03.090Z,92.74
2023-04-01T03:51:03.067Z,92.74
2023-04-01T03:52:03.217Z,92.74
2023-04-01T03:53:03.109Z,92.74
2023-04-01T03:54:03.026Z,92.74
2023-04-01T03:55:03.050Z,93.05
2023-04-01T03:56:03.020Z,92.33
2023-04-01T03:57:03.040Z,92.03
2023-04-01T03:58:03.125Z,92.23
2023-04-01T03:59:02.993Z,92.13
2023-04-01T04:00:02.946Z,92.13
2023-04-01T04:01:02.979Z,91.93
2023-04-01T04:02:02.969Z,91.82
2023-04-01T04:03:03.045Z,91.41
2023-04-01T04:04:03.084Z,91.10
2023-04-01T04:05:02.868Z,91.82
2023-04-01T04:06:02.878Z,91.41
2023-04-01T04:07:02.851Z,91.41
2023-04-01T04:08:02.897Z,91.41
2023-04-01T04:09:02.825Z,91.72
2023-04-01T04:10:02.982Z,91.93
2023-04-01T04:11:02.880Z,91.93
2023-04-01T04:12:02.815Z,91.41
2023-04-01T04:13:02.863Z,91.61
2023-04-01T04:14:02.854Z,91.51
2023-04-01T04:15:02.793Z,90.85
2023-04-01T04:16:02.930Z,91.99
2023-04-01T04:17:02.862Z,91.16
2023-04-01T04:18:02.942Z,91.47
2023-04-01T04:19:02.891Z,91.37
2023-04-01T04:20:02.889Z,91.37
2023-04-01T04:21:02.769Z,91.27
2023-04-01T04:22:02.738Z,91.37
2023-04-01T04:23:02.719Z,91.47
2023-04-01T04:24:02.698Z,90.85
2023-04-01T04:25:02.700Z,91.06
2023-04-01T04:26:02.822Z,90.95
2023-04-01T04:27:02.678Z,91.27
2023-04-01T04:28:02.688Z,90.65
2023-04-01T04:29:02.611Z,90.85
2023-04-01T04:30:02.644Z,90.65
2023-04-01T04:31:02.634Z,91.06
2023-04-01T04:32:02.728Z,90.55
2023-04-01T04:33:02.698Z,90.85
2023-04-01T04:34:02.687Z,91.16
2023-04-01T04:35:02.572Z,91.57
2023-04-01T04:36:02.676Z,91.16
2023-04-01T04:37:02.543Z,91.57
2023-04-01T04:38:02.485Z,90.65
2023-04-01T04:39:02.494Z,91.16
2023-04-01T04:40:02.476Z,91.67
2023-04-01T04:41:02.443Z,91.78
2023-04-01T04:42:02.558Z,92.19
2023-04-01T04:43:02.426Z,92.50
2023-04-01T04:44:02.388Z,92.29
2023-04-01T04:45:02.417Z,92.44
2023-04-01T04:46:02.421Z,92.95
2023-04-01T04:47:02.422Z,93.05
2023-04-01T04:48:02.751Z,92.33
2023-04-01T04:49:02.375Z,92.74
2023-04-01T04:50:02.359Z,92.64
2023-04-01T04:51:02.400Z,92.85
2023-04-01T04:52:02.311Z,93.26
2023-04-01T04:53:02.365Z,92.85
2023-04-01T04:54:02.417Z,93.26
2023-04-01T04:55:02.383Z,93.67
2023-04-01T04:56:02.301Z,94.18
2023-04-01T04:57:02.348Z,94.29
2023-04-01T04:58:02.337Z,94.29
2023-04-01T04:59:02.243Z,94.18
2023-04-01T05:00:02.342Z,94.80
2023-04-01T05:01:02.271Z,94.64
2023-04-01T05:02:02.408Z,94.70
2023-04-01T05:03:02.290Z,94.64
2023-04-01T05:04:02.233Z,95.25
2023-04-01T05:05:02.259Z,95.56
2023-04-01T05:06:02.205Z,95.05
2023-04-01T05:07:02.202Z,95.56
2023-04-01T05:08:02.193Z,95.36
2023-04-01T05:09:02.274Z,95.25
2023-04-01T05:10:02.133Z,95.36
2023-04-01T05:11:02.261Z,95.67
2023-04-01T05:12:02.232Z,95.25
2023-04-01T05:13:02.131Z,95.15
2023-04-01T05:14:02.084Z,95.36
2023-04-01T05:15:02.115Z,95.56
2023-04-01T05:16:02.131Z,95.25
2023-04-01T05:17:02.101Z,95.36
2023-04-01T05:18:02.069Z,95.46
2023-04-01T05:19:02.150Z,95.46
2023-04-01T05:20:02.058Z,95.56
2023-04-01T05:21:02.000Z,95.56
2023-04-01T05:22:02.244Z,95.56
2023-04-01T05:23:02.017Z,95.67
2023-04-01T05:24:02.020Z,95.67
2023-04-01T05:25:02.008Z,95.56
2023-04-01T05:26:02.019Z,95.25
2023-04-01T05:27:02.271Z,95.36
2023-04-01T05:28:01.948Z,95.25
2023-04-01T05:29:01.984Z,95.87
2023-04-01T05:30:02.086Z,95.25
2023-04-01T05:31:02.059Z,95.25
2023-04-01T05:32:02.085Z,95.25
2023-04-01T05:33:01.936Z,95.56
2023-04-01T05:34:01.924Z,95.77
2023-04-01T05:35:01.889Z,95.97
2023-04-01T05:36:01.902Z,95.97
2023-04-01T05:37:01.882Z,96.28
2023-04-01T05:38:01.845Z,96.48
2023-04-01T05:39:01.827Z,96.69
2023-04-01T05:40:01.908Z,96.80
2023-04-01T05:41:01.817Z,97.31
2023-04-01T05:42:01.968Z,96.90
2023-04-01T05:43:01.827Z,97.20
2023-04-01T05:44:01.801Z,96.80
2023-04-01T05:45:01.842Z,96.69
2023-04-01T05:46:01.791Z,96.69
2023-04-01T05:47:01.779Z,96.90
2023-04-01T05:48:01.770Z,97.31
2023-04-01T05:49:01.818Z,97.62
2023-04-01T05:50:01.782Z,97.31
2023-04-01T05:51:01.725Z,97.31
2023-04-01T05:52:01.728Z,97.31
2023-04-01T05:53:01.763Z,97.20
2023-04-01T05:54:01.798Z,97.72
2023-04-01T05:55:01.682Z,97.77
2023-04-01T05:56:01.730Z,97.77
2023-04-01T05:57:01.693Z,97.87
2023-04-01T05:58:01.752Z,97.56
2023-04-01T05:59:01.593Z,98.07
2023-04-01T06:00:01.627Z,97.77
2023-04-01T06:01:09.601Z,97.97
2023-04-01T06:02:01.613Z,98.28
2023-04-01T06:03:01.666Z,98.28
2023-04-01T06:04:01.732Z,98.59
2023-04-01T06:05:01.569Z,98.79
2023-04-01T06:06:01.565Z,98.59
2023-04-01T06:07:01.562Z,98.90
2023-04-01T06:08:01.516Z,98.90
2023-04-01T06:09:01.496Z,99.21
2023-04-01T06:10:01.521Z,99.41
2023-04-01T06:11:01.525Z,99.21
2023-04-01T06:12:01.469Z,99.41
2023-04-01T06:13:01.462Z,99.31
2023-04-01T06:14:01.453Z,99.00
2023-04-01T06:15:01.475Z,98.90
2023-04-01T06:16:01.470Z,99.21
2023-04-01T06:17:01.464Z,99.31
2023-04-01T06:18:01.516Z,99.31
2023-04-01T06:19:01.387Z,99.00
2023-04-01T06:20:01.373Z,98.79
2023-04-01T06:21:01.405Z,98.90
2023-04-01T06:22:01.366Z,98.59
2023-04-01T06:23:01.348Z,98.59
2023-04-01T06:24:01.349Z,98.49
2023-04-01T06:25:01.334Z,98.90
2023-04-01T06:26:01.355Z,99.10
2023-04-01T06:27:01.301Z,99.10
2023-04-01T06:28:01.290Z,98.79
2023-04-01T06:29:01.288Z,98.69
2023-04-01T06:30:01.265Z,98.90
2023-04-01T06:31:01.280Z,98.49
2023-04-01T06:32:01.310Z,98.38
2023-04-01T06:33:01.288Z,98.49
2023-04-01T06:34:01.204Z,98.18
2023-04-01T06:35:01.228Z,97.87
2023-04-01T06:36:01.238Z,98.18
2023-04-01T06:37:01.233Z,97.87
2023-04-01T06:38:01.213Z,97.97
2023-04-01T06:39:01.221Z,97.66
2023-04-01T06:40:01.207Z,97.72
2023-04-01T06:41:01.155Z,98.03
2023-04-01T06:42:01.142Z,98.18
2023-04-01T06:43:01.150Z,97.52
2023-04-01T06:44:01.105Z,97.72
2023-04-01T06:45:01.169Z,97.52
2023-04-01T06:46:01.203Z,97.31
2023-04-01T06:47:01.127Z,97.52
2023-04-01T06:48:01.186Z,98.24
2023-04-01T06:49:01.105Z,98.13
2023-04-01T06:50:01.109Z,98.03
2023-04-01T06:51:01.101Z,98.13
2023-04-01T06:52:01.096Z,98.03
2023-04-01T06:53:01.065Z,98.13
2023-04-01T06:54:01.050Z,97.92
2023-04-01T06:55:01.046Z,97.52
2023-04-01T06:56:01.037Z,98.03
2023-04-01T06:57:01.003Z,97.52
2023-04-01T06:58:01.040Z,98.24
2023-04-01T06:59:01.028Z,97.82
2023-04-01T07:00:01.232Z,97.62
2023-04-01T07:01:00.985Z,97.62
2023-04-01T07:02:00.961Z,97.92
2023-04-01T07:03:01.000Z,97.20
2023-04-01T07:04:01.009Z,97.72
2023-04-01T07:05:00.912Z,97.52
2023-04-01T07:06:00.889Z,97.72
2023-04-01T07:07:00.896Z,97.41
2023-04-01T07:08:00.848Z,97.72
2023-04-01T07:09:01.514Z,97.82
2023-04-01T07:10:00.839Z,97.82
2023-04-01T07:11:00.903Z,98.03
2023-04-01T07:12:00.833Z,98.13
2023-04-01T07:13:00.827Z,98.03
2023-04-01T07:14:00.785Z,97.82
2023-04-01T07:15:00.796Z,98.49
2023-04-01T07:16:00.783Z,98.69
2023-04-01T07:17:00.867Z,98.90
2023-04-01T07:18:00.771Z,99.41
2023-04-01T07:19:00.783Z,99.51
2023-04-01T07:20:00.752Z,99.21
2023-04-01T07:21:00.732Z,99.31
2023-04-01T07:22:00.804Z,99.10
2023-04-01T07:23:00.718Z,99.31
2023-04-01T07:24:00.737Z,99.31
2023-04-01T07:25:00.688Z,99.31
2023-04-01T07:26:00.711Z,99.00
2023-04-01T07:27:00.677Z,99.00
2023-04-01T07:28:00.634Z,98.79
2023-04-01T07:29:00.657Z,98.90
2023-04-01T07:30:00.658Z,99.31
2023-04-01T07:31:00.684Z,99.51
2023-04-01T07:32:00.626Z,99.57
2023-04-01T07:33:00.728Z,99.21
2023-04-01T07:34:00.648Z,99.16
2023-04-01T07:35:00.645Z,98.96
2023-04-01T07:36:00.600Z,98.96
2023-04-01T07:37:00.614Z,99.05
2023-04-01T07:38:00.612Z,99.05
2023-04-01T07:39:00.581Z,99.05
2023-04-01T07:40:00.531Z,99.37
2023-04-01T07:41:00.533Z,99.67
2023-04-01T07:42:00.547Z,99.47
2023-04-01T07:43:00.526Z,99.26
2023-04-01T07:44:00.480Z,99.47
2023-04-01T07:45:00.492Z,99.16
2023-04-01T07:46:00.610Z,99.16
2023-04-01T07:47:00.470Z,98.85
2023-04-01T07:48:00.565Z,99.16
2023-04-01T07:49:00.472Z,99.05
2023-04-01T07:50:00.448Z,98.65
2023-04-01T07:51:00.403Z,98.85
2023-04-01T07:52:00.395Z,98.70
2023-04-01T07:53:00.613Z,99.01
2023-04-01T07:54:00.427Z,98.91
2023-04-01T07:55:00.411Z,99.11
2023-04-01T07:56:00.540Z,99.01
2023-04-01T07:57:00.412Z,98.91
2023-04-01T07:58:00.339Z,98.60
2023-04-01T07:59:00.422Z,98.70
2023-04-01T08:00:00.400Z,98.70
2023-04-01T08:01:00.311Z,98.50
2023-04-01T08:02:00.301Z,97.99
2023-04-01T08:03:00.406Z,98.19
2023-04-01T08:04:00.477Z,98.29
2023-04-01T08:05:00.461Z,97.78
2023-04-01T08:06:00.311Z,98.39
2023-04-01T08:07:00.549Z,97.88
2023-04-01T08:08:00.232Z,98.25
2023-04-01T08:09:00.264Z,98.14
2023-04-01T08:10:00.211Z,98.25
2023-04-01T08:11:00.221Z,98.25
2023-04-01T08:12:00.324Z,98.04
2023-04-01T08:13:00.190Z,97.73
2023-04-01T08:14:00.212Z,97.73
2023-04-01T08:15:00.186Z,97.32
2023-04-01T08:16:00.211Z,96.81
2023-04-01T08:17:00.152Z,97.12
2023-04-01T08:18:00.279Z,97.17
2023-04-01T08:19:00.137Z,96.35
2023-04-01T08:20:00.137Z,97.07
2023-04-01T08:21:00.141Z,96.87
2023-04-01T08:22:00.114Z,97.17
2023-04-01T08:23:00.103Z,96.87
2023-04-01T08:24:00.092Z,96.56
2023-04-01T08:25:00.054Z,96.45
2023-04-01T08:26:00.068Z,96.66
2023-04-01T08:27:00.053Z,96.97
2023-04-01T08:28:00.039Z,96.77
2023-04-01T08:28:59.994Z,96.97
2023-04-01T08:30:00.024Z,96.77
2023-04-01T08:31:00.001Z,97.17
2023-04-01T08:32:00.077Z,97.07
2023-04-01T08:33:00.043Z,97.07
2023-04-01T08:33:59.963Z,96.45
2023-04-01T08:34:59.966Z,96.87
2023-04-01T08:36:00.102Z,97.17
2023-04-01T08:36:59.929Z,96.87
2023-04-01T08:37:59.931Z,97.07
2023-04-01T08:38:59.933Z,96.66
2023-04-01T08:39:59.939Z,96.87
2023-04-01T08:40:59.932Z,96.97
2023-04-01T08:41:59.852Z,97.38
2023-04-01T08:42:59.879Z,96.97
2023-04-01T08:43:59.816Z,97.17
2023-04-01T08:44:59.901Z,96.87
2023-04-01T08:45:59.804Z,97.07
2023-04-01T08:46:59.844Z,97.48
2023-04-01T08:47:59.861Z,97.13
2023-04-01T08:48:59.829Z,97.03
2023-04-01T08:49:59.788Z,96.92
2023-04-01T08:50:59.740Z,97.44
2023-04-01T08:51:59.762Z,97.74
2023-04-01T08:52:59.854Z,97.64
2023-04-01T08:53:59.749Z,97.64
2023-04-01T08:54:59.769Z,98.16
2023-04-01T08:55:59.716Z,97.74
2023-04-01T08:56:59.692Z,97.64
2023-04-01T08:57:59.765Z,98.05
2023-04-01T08:58:59.696Z,98.16
2023-04-01T08:59:59.682Z,98.36
2023-04-01T09:00:59.638Z,98.25
2023-04-01T09:01:59.692Z,98.67
2023-04-01T09:02:59.804Z,98.25
2023-04-01T09:03:59.700Z,98.57
2023-04-01T09:04:59.633Z,98.16
2023-04-01T09:05:59.653Z,97.74
2023-04-01T09:06:59.603Z,97.64
2023-04-01T09:07:59.594Z,97.95
2023-04-01T09:08:59.584Z,97.85
2023-04-01T09:09:59.572Z,98.16
2023-04-01T09:10:59.558Z,98.05
2023-04-01T09:11:59.601Z,97.64
2023-04-01T09:12:59.520Z,98.05
2023-04-01T09:13:59.530Z,97.95
2023-04-01T09:14:59.488Z,98.25
2023-04-01T09:15:59.531Z,98.05
2023-04-01T09:16:59.553Z,98.25
2023-04-01T09:17:59.530Z,98.05
2023-04-01T09:18:59.434Z,98.36
2023-04-01T09:19:59.437Z,98.46
2023-04-01T09:20:59.409Z,98.57
2023-04-01T09:21:59.482Z,98.00
2023-04-01T09:22:59.417Z,99.24
2023-04-01T09:23:59.415Z,98.11
2023-04-01T09:24:59.382Z,97.95
2023-04-01T09:25:59.381Z,98.16
2023-04-01T09:26:59.778Z,98.46
2023-04-01T09:27:59.357Z,98.77
2023-04-01T09:28:59.346Z,98.72
2023-04-01T09:29:59.375Z,98.83
2023-04-01T09:30:59.329Z,98.62
2023-04-01T09:31:59.383Z,98.62
2023-04-01T09:32:59.362Z,99.44
2023-04-01T09:33:59.278Z,98.42
2023-04-01T09:34:59.304Z,98.68
2023-04-01T09:35:59.321Z,98.88
2023-04-01T09:36:59.277Z,98.27
2023-04-01T09:37:59.225Z,98.37
2023-04-01T09:38:59.223Z,98.47
2023-04-01T09:39:59.241Z,98.72
2023-04-01T09:40:59.239Z,98.62
2023-04-01T09:41:59.230Z,98.72
2023-04-01T09:42:59.170Z,98.72
2023-04-01T09:43:59.181Z,98.62
2023-04-01T09:44:59.165Z,98.62
2023-04-01T09:45:59.219Z,98.16
2023-04-01T09:46:59.204Z,98.47
2023-04-01T09:47:59.195Z,98.88
2023-04-01T09:48:59.120Z,98.78
2023-04-01T09:49:59.178Z,98.16
2023-04-01T09:50:59.117Z,98.47
2023-04-01T09:51:59.081Z,98.07
2023-04-01T09:52:59.065Z,98.47
2023-04-01T09:53:59.100Z,98.47
2023-04-01T09:54:59.076Z,98.58
2023-04-01T09:55:59.052Z,98.37
2023-04-01T09:56:59.306Z,98.27
2023-04-01T09:57:59.019Z,98.68
2023-04-01T09:58:59.004Z,98.68
2023-04-01T09:59:59.010Z,98.68
2023-04-01T10:00:58.972Z,98.68
2023-04-01T10:01:59.034Z,99.19
2023-04-01T10:02:58.980Z,98.99
2023-04-01T10:03:58.985Z,98.58
2023-04-01T10:04:58.990Z,98.78
2023-04-01T10:05:59.026Z,98.27
2023-04-01T10:06:58.985Z,98.68
2023-04-01T10:07:59.032Z,97.96
2023-04-01T10:08:58.890Z,98.47
2023-04-01T10:09:58.912Z,98.88
2023-04-01T10:10:58.891Z,98.78
2023-04-01T10:11:58.899Z,99.40
2023-04-01T10:12:58.856Z,99.50
2023-04-01T10:13:58.915Z,99.40
2023-04-01T10:14:58.851Z,99.40
2023-04-01T10:15:58.927Z,99.40
2023-04-01T10:16:58.826Z,99.60
2023-04-01T10:17:58.899Z,98.99
2023-04-01T10:18:58.780Z,99.40
2023-04-01T10:19:58.790Z,99.80
2023-04-01T10:20:58.780Z,99.99
2023-04-01T10:21:58.794Z,99.80
2023-04-01T10:22:58.755Z,99.86
2023-04-01T10:23:58.723Z,99.80
2023-04-01T10:24:58.757Z,99.60
2023-04-01T10:25:58.728Z,99.55
2023-04-01T10:26:58.760Z,99.55
2023-04-01T10:27:58.716Z,99.25
2023-04-01T10:28:58.679Z,99.66
2023-04-01T10:29:58.698Z,99.86
2023-04-01T10:30:58.656Z,99.99
2023-04-01T10:31:58.720Z,99.96
2023-04-01T10:32:58.665Z,99.96
2023-04-01T10:33:58.627Z,99.99
2023-04-01T10:34:58.589Z,99.99
2023-04-01T10:35:58.629Z,99.76
2023-04-01T10:36:58.602Z,99.86
2023-04-01T10:37:58.634Z,99.99
2023-04-01T10:38:58.573Z,99.96
2023-04-01T10:39:58.566Z,99.76
2023-04-01T10:40:58.528Z,99.55
2023-04-01T10:41:58.584Z,99.99
2023-04-01T10:42:58.527Z,99.99
2023-04-01T10:43:58.516Z,99.76
2023-04-01T10:44:58.493Z,99.96
2023-04-01T10:45:58.567Z,99.96
2023-04-01T10:46:58.478Z,99.66
2023-04-01T10:47:58.497Z,99.71
2023-04-01T10:48:58.497Z,99.61
2023-04-01T10:49:58.459Z,99.51
2023-04-01T10:50:58.473Z,99.99
2023-04-01T10:51:58.430Z,99.99
2023-04-01T10:52:58.428Z,99.61
2023-04-01T10:53:58.401Z,99.61
2023-04-01T10:54:58.397Z,99.91
2023-04-01T10:55:58.390Z,99.51
2023-04-01T10:56:58.436Z,99.20
2023-04-01T10:57:58.371Z,99.71
2023-04-01T10:58:58.365Z,99.61
2023-04-01T10:59:58.378Z,99.87
2023-04-01T11:00:58.350Z,99.99
2023-04-01T11:02:10.019Z,99.99
2023-04-01T11:02:58.484Z,99.87
2023-04-01T11:03:58.381Z,99.99
2023-04-01T11:04:58.266Z,99.87
2023-04-01T11:05:58.269Z,99.66
2023-04-01T11:06:58.260Z,99.46
2023-04-01T11:08:06.100Z,99.36
2023-04-01T11:08:58.250Z,99.46
2023-04-01T11:09:58.250Z,99.36
2023-04-01T11:10:58.250Z,99.36
2023-04-01T11:11:58.280Z,99.26
2023-04-01T11:12:58.236Z,98.99
2023-04-01T11:13:58.245Z,98.90
2023-04-01T11:14:58.169Z,99.61
2023-04-01T11:15:58.261Z,99.46
2023-04-01T11:16:58.192Z,99.46
2023-04-01T11:17:58.217Z,99.36
2023-04-01T11:18:58.167Z,99.05
2023-04-01T11:19:58.150Z,99.26
2023-04-01T11:20:58.132Z,99.01
2023-04-01T11:21:58.126Z,99.21
2023-04-01T11:22:58.103Z,99.21
2023-04-01T11:24:05.058Z,98.80
2023-04-01T11:24:58.080Z,98.65
2023-04-01T11:25:58.148Z,99.05
2023-04-01T11:26:58.185Z,98.44
2023-04-01T11:27:58.081Z,98.95
2023-04-01T11:28:58.087Z,99.11
2023-04-01T11:30:00.128Z,98.29
2023-04-01T11:30:58.085Z,98.54
2023-04-01T11:31:58.062Z,97.98
2023-04-01T11:32:58.058Z,98.70
2023-04-01T11:33:57.981Z,98.29
2023-04-01T11:34:57.987Z,98.49
2023-04-01T11:35:58.009Z,99.01
2023-04-01T11:36:58.046Z,99.21
2023-04-01T11:37:58.019Z,99.01
2023-04-01T11:38:58.001Z,98.80
2023-04-01T11:39:58.292Z,98.08
2023-04-01T11:40:57.900Z,98.08
2023-04-01T11:41:57.957Z,98.19
2023-04-01T11:42:57.882Z,98.19
2023-04-01T11:43:57.939Z,98.49
2023-04-01T11:44:57.876Z,97.88
2023-04-01T11:45:57.948Z,98.19
2023-04-01T11:46:57.867Z,98.60
2023-04-01T11:47:57.916Z,99.21
2023-04-01T11:48:57.951Z,99.21
2023-04-01T11:49:57.837Z,98.70
2023-04-01T11:50:57.810Z,98.49
2023-04-01T11:51:57.850Z,98.60
2023-04-01T11:52:57.819Z,98.39
2023-04-01T11:53:57.832Z,98.08
2023-04-01T11:54:57.753Z,97.47
2023-04-01T11:55:57.753Z,98.29
2023-04-01T11:56:57.741Z,97.67
2023-04-01T11:57:57.766Z,97.78
2023-04-01T11:58:57.740Z,98.08
2023-04-01T11:59:57.742Z,98.60
2023-04-01T12:00:57.803Z,98.03
2023-04-01T12:01:57.704Z,98.33
2023-04-01T12:02:57.809Z,98.65
2023-04-01T12:03:58.559Z,98.44
2023-04-01T12:04:57.851Z,97.82
2023-04-01T12:05:57.699Z,97.41
2023-04-01T12:06:57.634Z,97.82
2023-04-01T12:07:57.630Z,97.62
2023-04-01T12:08:57.622Z,97.82
2023-04-01T12:09:57.635Z,98.13
2023-04-01T12:10:57.619Z,98.03
2023-04-01T12:11:57.658Z,98.13
2023-04-01T12:13:01.353Z,98.33
2023-04-01T12:13:57.572Z,97.87
2023-04-01T12:14:57.630Z,98.79
2023-04-01T12:15:57.562Z,99.20
2023-04-01T12:16:57.522Z,99.61
2023-04-01T12:17:57.559Z,99.61
2023-04-01T12:18:57.493Z,99.99
2023-04-01T12:19:57.572Z,99.99
2023-04-01T12:20:57.477Z,99.99
2023-04-01T12:21:57.515Z,99.99
2023-04-01T12:22:57.487Z,99.99
2023-04-01T12:23:57.504Z,99.99
2023-04-01T12:24:57.494Z,99.99
2023-04-01T12:25:57.455Z,99.99
2023-04-01T12:26:57.409Z,99.99
2023-04-01T12:27:57.423Z,99.99
2023-04-01T12:28:57.422Z,99.99
2023-04-01T12:29:57.397Z,99.99
2023-04-01T12:30:57.343Z,99.99
2023-04-01T12:31:57.428Z,99.99
2023-04-01T12:32:57.382Z,99.99
2023-04-01T12:33:57.416Z,99.99
2023-04-01T12:34:57.337Z,99.99
2023-04-01T12:35:57.452Z,99.99
2023-04-01T12:36:57.314Z,99.99
2023-04-01T12:37:57.325Z,99.99
2023-04-01T12:38:57.274Z,99.99
2023-04-01T12:39:57.286Z,99.99
2023-04-01T12:40:57.297Z,99.99
2023-04-01T12:41:57.266Z,99.99
2023-04-01T12:42:57.241Z,99.99
2023-04-01T12:43:57.217Z,99.99
2023-04-01T12:44:57.234Z,99.99
2023-04-01T12:45:57.234Z,99.99
2023-04-01T12:46:57.923Z,99.99
2023-04-01T12:47:57.221Z,99.99
2023-04-01T12:48:57.217Z,99.99
2023-04-01T12:49:57.253Z,99.99
2023-04-01T12:50:57.400Z,99.99
2023-04-01T12:51:57.152Z,99.99